createdAt,value
2022-10-23T00:01:41.170Z,101437.53
2022-10-23T00:04:33.930Z,101436.19
2022-10-23T00:07:01.421Z,101437.03
2022-10-23T00:09:27.854Z,101448.78
2022-10-23T00:11:54.399Z,101447.09
2022-10-23T00:14:23.095Z,101446.38
2022-10-23T00:16:49.579Z,101445.19
2022-10-23T00:19:16.388Z,101458.97
2022-10-23T00:21:43.167Z,101460.03
2022-10-23T00:26:41.341Z,101458.50
2022-10-23T00:29:08.227Z,101461.38
2022-10-23T00:31:34.676Z,101455.94
2022-10-23T00:34:01.151Z,101456.13
2022-10-23T00:36:27.549Z,101455.28
2022-10-23T00:38:54.459Z,101460.53
2022-10-23T00:41:23.314Z,101455.94
2022-10-23T00:44:02.124Z,101460.53
2022-10-23T00:46:29.619Z,101452.38
2022-10-23T00:48:56.455Z,101448.59
2022-10-23T00:51:25.503Z,101454.06
2022-10-23T00:54:01.234Z,101458.66
2022-10-23T00:56:40.371Z,101457.63
2022-10-23T00:59:06.763Z,101457.63
2022-10-23T01:01:33.750Z,101445.22
2022-10-23T01:04:01.888Z,101454.44
2022-10-23T01:06:31.445Z,101446.91
2022-10-23T01:09:10.894Z,101459.50
2022-10-23T01:11:40.368Z,101456.78
2022-10-23T01:14:13.364Z,101464.97
2022-10-23T01:16:50.093Z,101466.00
2022-10-23T01:19:22.696Z,101466.19
2022-10-23T01:21:52.253Z,101469.06
2022-10-23T01:24:21.541Z,101465.31
2022-10-23T01:26:54.240Z,101467.03
2022-10-23T01:29:25.485Z,101463.59
2022-10-23T01:31:58.337Z,101466.31
2022-10-23T01:34:52.172Z,101468.06
2022-10-23T01:37:23.231Z,101468.19
2022-10-23T01:39:52.318Z,101464.44
2022-10-23T01:42:22.021Z,101476.22
2022-10-23T01:45:14.883Z,101483.38
2022-10-23T01:47:42.329Z,101476.38
2022-10-23T01:50:09.963Z,101482.69
2022-10-23T01:52:37.083Z,101474.50
2022-10-23T01:55:04.153Z,101474.34
2022-10-23T01:57:32.228Z,101469.75
2022-10-23T02:00:06.799Z,101476.38
2022-10-23T02:02:34.124Z,101478.06
2022-10-23T02:05:03.697Z,101473.16
2022-10-23T02:07:30.328Z,101480.81
2022-10-23T02:09:56.759Z,101473.13
2022-10-23T02:12:37.433Z,101473.97
2022-10-23T02:15:03.809Z,101471.25
2022-10-23T02:17:40.564Z,101482.84
2022-10-23T02:20:10.211Z,101476.38
2022-10-23T02:22:40.755Z,101482.16
2022-10-23T02:25:11.342Z,101473.97
2022-10-23T02:27:40.422Z,101474.88
2022-10-23T02:30:08.305Z,101467.69
2022-10-23T02:32:36.021Z,101481.16
2022-10-23T02:35:02.750Z,101463.06
2022-10-23T02:37:29.198Z,101476.03
2022-10-23T02:39:55.721Z,101475.72
2022-10-23T02:42:36.321Z,101471.09
2022-10-23T02:45:05.707Z,101472.13
2022-10-23T02:47:35.159Z,101472.28
2022-10-23T02:50:01.537Z,101473.31
2022-10-23T02:52:48.135Z,101485.06
2022-10-23T02:55:17.623Z,101485.91
2022-10-23T02:57:50.145Z,101482.16
2022-10-23T03:00:17.948Z,101472.13
2022-10-23T03:02:46.589Z,101472.97
2022-10-23T03:05:23.403Z,101474.16
2022-10-23T03:07:49.945Z,101483.38
2022-10-23T03:10:16.438Z,101472.28
2022-10-23T03:12:43.122Z,101474.69
2022-10-23T03:15:11.361Z,101479.94
2022-10-23T03:17:37.831Z,101482.00
2022-10-23T03:20:04.958Z,101484.22
2022-10-23T03:22:31.402Z,101477.75
2022-10-23T03:24:57.763Z,101482.34
2022-10-23T03:27:24.181Z,101476.88
2022-10-23T03:29:50.599Z,101481.69
2022-10-23T03:32:16.983Z,101486.09
2022-10-23T03:34:43.484Z,101482.53
2022-10-23T03:37:09.833Z,101483.72
2022-10-23T03:39:36.217Z,101485.59
2022-10-23T03:42:02.583Z,101483.72
2022-10-23T03:44:31.108Z,101487.28
2022-10-23T03:46:57.745Z,101486.44
2022-10-23T03:49:24.085Z,101487.63
2022-10-23T03:51:52.772Z,101485.91
2022-10-23T03:54:19.899Z,101492.22
2022-10-23T03:56:46.309Z,101490.00
2022-10-23T03:59:12.641Z,101497.00
2022-10-23T04:01:39.125Z,101498.88
2022-10-23T04:04:05.544Z,101502.44
2022-10-23T04:06:31.977Z,101499.53
2022-10-23T04:08:58.619Z,101497.84
2022-10-23T04:11:25.128Z,101497.66
2022-10-23T04:13:51.485Z,101500.75
2022-10-23T04:16:18.054Z,101502.78
2022-10-23T04:18:44.517Z,101495.78
2022-10-23T04:21:11.276Z,101491.56
2022-10-23T04:23:37.601Z,101499.22
2022-10-23T04:26:04.001Z,101494.78
2022-10-23T04:28:30.467Z,101501.28
2022-10-23T04:30:56.861Z,101497.66
2022-10-23T04:33:23.640Z,101490.00
2022-10-23T04:35:50.091Z,101492.59
2022-10-23T04:38:16.459Z,101499.22
2022-10-23T04:40:42.828Z,101499.72
2022-10-23T04:43:09.631Z,101503.31
2022-10-23T04:45:36.110Z,101502.44
2022-10-23T04:48:02.489Z,101512.31
2022-10-23T04:50:29.629Z,101506.22
2022-10-23T04:52:56.567Z,101510.81
2022-10-23T04:55:23.126Z,101514.19
2022-10-23T04:57:49.591Z,101507.22
2022-10-23T05:00:16.260Z,101509.25
2022-10-23T05:02:42.921Z,101518.09
2022-10-23T05:05:09.523Z,101513.69
2022-10-23T05:07:36.594Z,101511.28
2022-10-23T05:10:03.676Z,101505.84
2022-10-23T05:12:30.026Z,101504.31
2022-10-23T05:14:56.495Z,101501.41
2022-10-23T05:17:26.719Z,101499.41
2022-10-23T05:19:54.603Z,101499.53
2022-10-23T05:22:22.637Z,101491.72
2022-10-23T05:24:50.608Z,101487.97
2022-10-23T05:27:17.617Z,101498.03
2022-10-23T05:29:44.219Z,101484.41
2022-10-23T05:32:12.750Z,101485.06
2022-10-23T05:34:40.015Z,101483.56
2022-10-23T05:37:07.855Z,101482.03
2022-10-23T05:39:34.598Z,101491.03
2022-10-23T05:42:01.175Z,101489.34
2022-10-23T05:44:27.614Z,101492.72
2022-10-23T05:46:53.973Z,101494.94
2022-10-23T05:49:20.615Z,101493.41
2022-10-23T05:51:47.253Z,101487.78
2022-10-23T05:54:13.677Z,101497.19
2022-10-23T05:56:43.957Z,101490.69
2022-10-23T05:59:10.932Z,101497.19
2022-10-23T06:01:38.762Z,101502.44
2022-10-23T06:04:05.404Z,101503.63
2022-10-23T06:06:32.025Z,101502.44
2022-10-23T06:08:58.568Z,101506.53
2022-10-23T06:11:25.024Z,101509.78
2022-10-23T06:13:51.578Z,101510.94
2022-10-23T06:16:22.298Z,101510.09
2022-10-23T06:18:48.763Z,101512.50
2022-10-23T06:21:15.800Z,101504.00
2022-10-23T06:23:42.779Z,101508.41
2022-10-23T06:26:10.180Z,101500.75
2022-10-23T06:28:36.966Z,101500.56
2022-10-23T06:31:12.045Z,101494.09
2022-10-23T06:33:39.570Z,101488.31
2022-10-23T06:36:08.451Z,101497.19
2022-10-23T06:38:37.523Z,101494.47
2022-10-23T06:41:04.809Z,101485.25
2022-10-23T06:43:31.286Z,101485.94
2022-10-23T06:46:00.895Z,101492.75
2022-10-23T06:48:27.408Z,101503.81
2022-10-23T06:50:53.805Z,101506.22
2022-10-23T06:53:20.435Z,101506.34
2022-10-23T06:55:49.046Z,101496.31
2022-10-23T06:58:19.138Z,101496.31
2022-10-23T07:00:46.435Z,101495.31
2022-10-23T07:03:14.066Z,101506.34
2022-10-23T07:05:41.067Z,101506.22
2022-10-23T07:08:08.682Z,101517.94
2022-10-23T07:10:35.274Z,101525.28
2022-10-23T07:13:03.365Z,101528.00
2022-10-23T07:15:30.212Z,101531.72
2022-10-23T07:17:56.700Z,101532.59
2022-10-23T07:20:23.129Z,101533.44
2022-10-23T07:22:55.326Z,101538.91
2022-10-23T07:25:22.615Z,101536.19
2022-10-23T07:27:49.944Z,101533.28
2022-10-23T07:30:16.838Z,101540.41
2022-10-23T07:32:43.775Z,101545.88
2022-10-23T07:35:11.008Z,101534.31
2022-10-23T07:37:37.652Z,101534.97
2022-10-23T07:40:07.574Z,101534.97
2022-10-23T07:42:34.303Z,101524.91
2022-10-23T07:45:00.660Z,101518.47
2022-10-23T07:47:27.138Z,101523.75
2022-10-23T07:49:53.539Z,101522.72
2022-10-23T07:52:20.996Z,101522.72
2022-10-23T07:54:50.746Z,101529.88
2022-10-23T07:57:17.146Z,101526.28
2022-10-23T07:59:43.750Z,101518.63
2022-10-23T08:02:11.463Z,101524.25
2022-10-23T08:04:38.015Z,101515.91
2022-10-23T08:07:05.780Z,101520.50
2022-10-23T08:09:35.281Z,101515.22
2022-10-23T08:12:06.158Z,101507.91
2022-10-23T08:14:33.145Z,101514.72
2022-10-23T08:16:59.713Z,101506.69
2022-10-23T08:19:41.113Z,101508.25
2022-10-23T08:22:19.092Z,101501.59
2022-10-23T08:24:45.517Z,101507.91
2022-10-23T08:27:11.940Z,101502.59
2022-10-23T08:29:38.344Z,101512.31
2022-10-23T08:32:05.192Z,101510.09
2022-10-23T08:34:32.936Z,101513.50
2022-10-23T08:37:02.338Z,101507.88
2022-10-23T08:39:28.857Z,101506.69
2022-10-23T08:41:55.274Z,101508.22
2022-10-23T08:44:33.391Z,101509.91
2022-10-23T08:47:08.468Z,101516.09
2022-10-23T08:49:39.184Z,101513.00
2022-10-23T08:52:13.267Z,101510.97
2022-10-23T08:54:54.545Z,101512.66
2022-10-23T08:57:33.580Z,101511.47
2022-10-23T09:00:01.542Z,101515.91
2022-10-23T09:02:30.778Z,101509.41
2022-10-23T09:04:59.498Z,101511.09
2022-10-23T09:07:35.243Z,101508.22
2022-10-23T09:10:21.889Z,101507.88
2022-10-23T09:12:49.516Z,101512.31
2022-10-23T09:15:25.320Z,101505.63
2022-10-23T09:17:57.771Z,101505.63
2022-10-23T09:20:25.665Z,101502.06
2022-10-23T09:22:57.802Z,101507.16
2022-10-23T09:25:26.298Z,101502.38
2022-10-23T09:27:57.439Z,101501.38
2022-10-23T09:30:27.379Z,101488.59
2022-10-23T09:32:54.567Z,101495.53
2022-10-23T09:35:23.006Z,101506.31
2022-10-23T09:37:53.120Z,101498.97
2022-10-23T09:40:23.606Z,101514.28
2022-10-23T09:42:51.808Z,101513.78
2022-10-23T09:45:39.105Z,101517.50
2022-10-23T09:48:11.171Z,101504.38
2022-10-23T09:50:42.181Z,101509.81
2022-10-23T09:53:15.558Z,101509.13
2022-10-23T09:55:42.883Z,101500.63
2022-10-23T09:58:20.303Z,101504.94
2022-10-23T10:00:51.068Z,101505.97
2022-10-23T10:03:21.796Z,101505.06
2022-10-23T10:05:56.207Z,101508.69
2022-10-23T10:08:34.955Z,101507.66
2022-10-23T10:11:06.312Z,101503.88
2022-10-23T10:13:34.045Z,101499.28
2022-10-23T10:16:06.122Z,101508.31
2022-10-23T10:19:09.382Z,101490.25
2022-10-23T10:21:55.007Z,101483.75
2022-10-23T10:24:27.037Z,101488.22
2022-10-23T10:27:02.373Z,101483.94
2022-10-23T10:29:32.000Z,101485.97
2022-10-23T10:31:58.448Z,101486.66
2022-10-23T10:34:40.466Z,101484.94
2022-10-23T10:37:25.543Z,101482.03
2022-10-23T10:40:12.416Z,101470.09
2022-10-23T10:42:42.903Z,101464.28
2022-10-23T10:45:12.547Z,101463.09
2022-10-23T10:47:59.144Z,101461.03
2022-10-23T10:50:29.799Z,101452.66
2022-10-23T10:53:09.296Z,101445.16
2022-10-23T10:55:39.987Z,101437.63
2022-10-23T10:58:09.786Z,101434.53
2022-10-23T11:00:36.460Z,101424.31
2022-10-23T11:03:22.722Z,101424.13
2022-10-23T11:05:50.637Z,101427.53
2022-10-23T11:08:24.993Z,101420.00
2022-10-23T11:10:57.194Z,101420.66
2022-10-23T11:13:44.340Z,101415.19
2022-10-23T11:16:16.942Z,101424.81
2022-10-23T11:18:46.455Z,101424.97
2022-10-23T11:21:47.080Z,101416.97
2022-10-23T11:24:31.669Z,101411.84
2022-10-23T11:27:10.474Z,101410.66
2022-10-23T11:29:46.840Z,101413.53
2022-10-23T11:32:13.259Z,101400.09
2022-10-23T11:35:07.371Z,101396.31
2022-10-23T11:37:34.010Z,101394.44
2022-10-23T11:40:21.280Z,101388.13
2022-10-23T11:42:49.140Z,101387.28
2022-10-23T11:45:27.827Z,101390.03
2022-10-23T11:48:02.672Z,101377.22
2022-10-23T11:50:32.216Z,101390.03
2022-10-23T11:53:20.811Z,101386.25
2022-10-23T11:56:00.392Z,101372.81
2022-10-23T11:58:47.556Z,101371.97
2022-10-23T12:01:25.684Z,101370.06
2022-10-23T12:03:55.147Z,101369.38
2022-10-23T12:06:24.509Z,101362.25
2022-10-23T12:08:54.042Z,101364.31
2022-10-23T12:11:42.332Z,101358.00
2022-10-23T12:14:28.725Z,101352.56
2022-10-23T12:16:56.199Z,101352.56
2022-10-23T12:19:24.320Z,101351.03
2022-10-23T12:21:51.704Z,101333.97
2022-10-23T12:24:39.823Z,101333.13
2022-10-23T12:27:15.231Z,101334.16
2022-10-23T12:29:41.904Z,101336.03
2022-10-23T12:32:21.043Z,101329.75
2022-10-23T12:34:59.072Z,101325.97
2022-10-23T12:37:41.038Z,101318.81
2022-10-23T12:40:09.781Z,101320.22
2022-10-23T12:42:37.603Z,101321.91
2022-10-23T12:48:24.532Z,101304.88
2022-10-23T12:50:53.470Z,101312.22
2022-10-23T12:53:21.270Z,101308.63
2022-10-23T12:55:47.613Z,101297.91
2022-10-23T12:58:21.768Z,101292.44
2022-10-23T13:00:53.082Z,101291.59
2022-10-23T13:03:21.196Z,101283.41
2022-10-23T13:05:48.683Z,101278.16
2022-10-23T13:08:15.108Z,101271.81
2022-10-23T13:10:41.859Z,101289.06
2022-10-23T13:13:08.532Z,101274.72
2022-10-23T13:15:39.650Z,101286.50
2022-10-23T13:18:09.922Z,101277.47
2022-10-23T13:20:38.166Z,101272.19
2022-10-23T13:23:09.224Z,101266.91
2022-10-23T13:25:36.520Z,101274.09
2022-10-23T13:28:12.183Z,101276.97
2022-10-23T13:30:40.145Z,101269.81
2022-10-23T13:33:21.679Z,101266.25
2022-10-23T13:36:02.014Z,101272.91
2022-10-23T13:38:51.492Z,101266.41
2022-10-23T13:41:19.178Z,101258.41
2022-10-23T13:43:46.776Z,101264.06
2022-10-23T13:46:31.427Z,101255.88
2022-10-23T13:48:58.168Z,101254.84
2022-10-23T13:51:28.820Z,101254.66
2022-10-23T13:53:55.504Z,101248.56
2022-10-23T13:56:22.992Z,101245.13
2022-10-23T13:58:49.697Z,101245.81
2022-10-23T14:01:16.130Z,101241.22
2022-10-23T14:03:42.974Z,101237.78
2022-10-23T14:06:09.407Z,101228.59
2022-10-23T14:08:35.829Z,101238.69
2022-10-23T14:11:02.314Z,101233.22
2022-10-23T14:13:28.938Z,101234.91
2022-10-23T14:15:55.990Z,101233.03
2022-10-23T14:18:22.463Z,101233.03
2022-10-23T14:20:48.941Z,101218.34
2022-10-23T14:23:15.296Z,101219.38
2022-10-23T14:25:41.674Z,101214.13
2022-10-23T14:28:08.144Z,101218.53
2022-10-23T14:30:36.164Z,101204.91
2022-10-23T14:33:02.488Z,101209.53
2022-10-23T14:35:28.928Z,101205.06
2022-10-23T14:37:55.424Z,101207.63
2022-10-23T14:40:21.789Z,101203.03
2022-10-23T14:42:48.349Z,101205.06
2022-10-23T14:45:14.815Z,101206.78
2022-10-23T14:47:41.356Z,101203.22
2022-10-23T14:50:08.168Z,101209.53
2022-10-23T14:52:34.620Z,101203.22
2022-10-23T14:55:01.770Z,101206.78
2022-10-23T14:57:28.205Z,101201.34
2022-10-23T14:59:54.639Z,101197.56
2022-10-23T15:02:21.021Z,101193.16
2022-10-23T15:04:47.388Z,101189.59
2022-10-23T15:07:13.935Z,101195.19
2022-10-23T15:09:40.387Z,101196.88
2022-10-23T15:12:07.408Z,101187.84
2022-10-23T15:14:34.185Z,101186.84
2022-10-23T15:17:00.570Z,101180.53
2022-10-23T15:19:26.971Z,101189.59
2022-10-23T15:21:53.315Z,101178.84
2022-10-23T15:24:21.092Z,101181.75
2022-10-23T15:26:48.480Z,101179.03
2022-10-23T15:29:15.171Z,101174.41
2022-10-23T15:31:42.842Z,101167.28
2022-10-23T15:34:10.644Z,101166.22
2022-10-23T15:36:36.972Z,101171.69
2022-10-23T15:39:05.956Z,101161.63
2022-10-23T15:41:35.486Z,101160.78
2022-10-23T15:44:03.025Z,101149.03
2022-10-23T15:46:29.665Z,101143.56
2022-10-23T15:48:55.984Z,101141.03
2022-10-23T15:51:22.768Z,101137.44
2022-10-23T15:53:49.362Z,101137.44
2022-10-23T15:56:15.753Z,101139.31
2022-10-23T15:58:42.345Z,101142.88
2022-10-23T16:01:08.820Z,101152.09
2022-10-23T16:03:36.548Z,101145.81
2022-10-23T16:06:03.874Z,101149.38
2022-10-23T16:08:30.214Z,101141.19
2022-10-23T16:10:56.643Z,101149.38
2022-10-23T16:13:22.991Z,101142.03
2022-10-23T16:15:49.366Z,101137.63
2022-10-23T16:18:18.003Z,101129.44
2022-10-23T16:20:44.351Z,101127.75
2022-10-23T16:23:10.763Z,101130.50
2022-10-23T16:25:37.762Z,101128.59
2022-10-23T16:28:04.987Z,101129.66
2022-10-23T16:30:31.422Z,101126.91
2022-10-23T16:32:57.899Z,101125.19
2022-10-23T16:35:24.247Z,101117.88
2022-10-23T16:37:50.638Z,101117.00
2022-10-23T16:40:17.017Z,101110.56
2022-10-23T16:42:43.740Z,101103.38
2022-10-23T16:45:10.618Z,101106.09
2022-10-23T16:47:37.069Z,101104.25
2022-10-23T16:50:03.866Z,101100.66
2022-10-23T16:52:30.279Z,101101.69
2022-10-23T16:54:56.740Z,101102.53
2022-10-23T16:57:23.174Z,101113.44
2022-10-23T16:59:49.645Z,101105.25
2022-10-23T17:02:16.209Z,101104.25
2022-10-23T17:04:42.822Z,101097.09
2022-10-23T17:07:09.283Z,101093.50
2022-10-23T17:09:35.943Z,101094.34
2022-10-23T17:12:02.410Z,101090.78
2022-10-23T17:14:31.929Z,101086.19
2022-10-23T17:17:01.049Z,101081.56
2022-10-23T17:22:14.537Z,101079.03
2022-10-23T17:24:41.320Z,101075.47
2022-10-23T17:27:07.882Z,101083.66
2022-10-23T17:29:34.265Z,101076.31
2022-10-23T17:32:00.722Z,101055.53
2022-10-23T17:34:27.110Z,101061.81
2022-10-23T17:36:54.231Z,101055.34
2022-10-23T17:39:23.244Z,101055.53
2022-10-23T17:41:49.780Z,101054.69
2022-10-23T17:44:16.605Z,101052.97
2022-10-23T17:46:42.940Z,101048.38
2022-10-23T17:49:10.128Z,101035.59
2022-10-23T17:51:36.558Z,101043.94
2022-10-23T17:54:05.284Z,101027.59
2022-10-23T17:56:32.484Z,101028.63
2022-10-23T17:59:00.251Z,101013.09
2022-10-23T18:01:27.519Z,101026.56
2022-10-23T18:03:55.445Z,101021.13
2022-10-23T18:06:25.850Z,101022.97
2022-10-23T18:08:55.434Z,101024.84
2022-10-23T18:11:26.627Z,101024.00
2022-10-23T18:13:53.663Z,101036.59
2022-10-23T18:16:20.530Z,101033.03
2022-10-23T18:18:48.300Z,101028.44
2022-10-23T18:21:16.896Z,101022.13
2022-10-23T18:23:43.272Z,101024.00
2022-10-23T18:26:29.854Z,101024.84
2022-10-23T18:28:57.518Z,101028.44
2022-10-23T18:31:25.497Z,101030.31
2022-10-23T18:33:56.109Z,101022.69
2022-10-23T18:36:24.355Z,101017.72
2022-10-23T18:38:51.220Z,101003.25
2022-10-23T18:41:18.304Z,100995.06
2022-10-23T18:43:44.850Z,100995.06
2022-10-23T18:46:14.508Z,100991.13
2022-10-23T18:48:41.658Z,100990.25
2022-10-23T18:51:15.879Z,100985.84
2022-10-23T18:53:42.883Z,100976.81
2022-10-23T18:56:09.276Z,100976.63
2022-10-23T18:58:35.657Z,100974.94
2022-10-23T19:01:02.308Z,100987.53
2022-10-23T19:03:28.806Z,100986.69
2022-10-23T19:05:55.264Z,100978.69
2022-10-23T19:08:21.959Z,100974.09
2022-10-23T19:10:50.007Z,100973.25
2022-10-23T19:13:17.127Z,100976.19
2022-10-23T19:15:43.670Z,100979.53
2022-10-23T19:18:10.512Z,100983.13
2022-10-23T19:20:37.309Z,100981.22
2022-10-23T19:23:05.266Z,100987.72
2022-10-23T19:25:33.098Z,100975.97
2022-10-23T19:28:00.360Z,100976.81
2022-10-23T19:30:27.049Z,100980.59
2022-10-23T19:32:53.493Z,100982.28
2022-10-23T19:35:20.563Z,100975.78
2022-10-23T19:37:47.433Z,100964.88
2022-10-23T19:40:14.321Z,100964.88
2022-10-23T19:42:41.566Z,100961.31
2022-10-23T19:45:09.545Z,100973.06
2022-10-23T19:47:36.244Z,100972.22
2022-10-23T19:50:03.019Z,100974.94
2022-10-23T19:52:29.701Z,100966.59
2022-10-23T19:54:56.210Z,100958.22
2022-10-23T19:57:22.853Z,100946.25
2022-10-23T19:59:52.378Z,100951.91
2022-10-23T20:02:19.633Z,100955.47
2022-10-23T20:04:46.451Z,100950.88
2022-10-23T20:07:13.283Z,100943.38
2022-10-23T20:09:39.697Z,100949.00
2022-10-23T20:12:06.532Z,100941.47
2022-10-23T20:14:33.409Z,100936.03
2022-10-23T20:17:00.016Z,100927.00
2022-10-23T20:19:26.441Z,100927.00
2022-10-23T20:21:52.951Z,100926.13
2022-10-23T20:24:19.839Z,100931.41
2022-10-23T20:26:47.908Z,100920.69
2022-10-23T20:29:14.794Z,100936.88
2022-10-23T20:31:41.373Z,100933.31
2022-10-23T20:34:07.869Z,100932.47
2022-10-23T20:36:40.156Z,100938.75
2022-10-23T20:39:10.271Z,100950.66
2022-10-23T20:41:37.443Z,100944.22
2022-10-23T20:44:05.140Z,100941.66
2022-10-23T20:46:31.854Z,100938.56
2022-10-23T20:48:58.432Z,100922.19
2022-10-23T20:51:25.142Z,100930.38
2022-10-23T20:53:52.130Z,100932.25
2022-10-23T20:56:21.066Z,100929.72
2022-10-23T20:58:47.499Z,100928.69
2022-10-23T21:01:14.693Z,100924.28
2022-10-23T21:03:41.212Z,100915.22
2022-10-23T21:06:15.225Z,100914.22
2022-10-23T21:08:41.736Z,100919.00
2022-10-23T21:11:10.807Z,100923.22
2022-10-23T21:13:37.331Z,100915.91
2022-10-23T21:16:17.273Z,100906.66
2022-10-23T21:18:46.664Z,100909.41
2022-10-23T21:21:14.511Z,100909.41
2022-10-23T21:23:40.948Z,100914.84
2022-10-23T21:26:07.717Z,100908.56
2022-10-23T21:28:34.706Z,100905.19
2022-10-23T21:31:08.459Z,100899.91
2022-10-23T21:33:36.381Z,100905.19
2022-10-23T21:36:17.783Z,100900.75
2022-10-23T21:38:45.137Z,100898.22
2022-10-23T21:41:13.068Z,100899.06
2022-10-23T21:43:39.594Z,100888.53
2022-10-23T21:46:06.933Z,100891.25
2022-10-23T21:48:33.645Z,100881.38
2022-10-23T21:51:00.203Z,100877.81
2022-10-23T21:53:27.210Z,100871.31
2022-10-23T21:55:54.242Z,100863.34
2022-10-23T21:58:20.619Z,100861.81
2022-10-23T22:00:47.034Z,100866.22
2022-10-23T22:03:13.542Z,100858.06
2022-10-23T22:05:39.950Z,100863.50
2022-10-23T22:08:06.405Z,100868.97
2022-10-23T22:10:34.246Z,100880.91
2022-10-23T22:13:00.752Z,100888.44
2022-10-23T22:15:27.079Z,100899.34
2022-10-23T22:17:53.597Z,100886.72
2022-10-23T22:20:20.035Z,100901.41
2022-10-23T22:22:46.373Z,100913.16
2022-10-23T22:25:12.825Z,100906.84
2022-10-23T22:27:39.260Z,100905.19
2022-10-23T22:30:05.946Z,100900.56
2022-10-23T22:32:32.582Z,100892.59
2022-10-23T22:34:58.950Z,100897.19
2022-10-23T22:37:27.568Z,100900.75
2022-10-23T22:39:53.992Z,100885.44
2022-10-23T22:42:20.539Z,100883.56
2022-10-23T22:44:47.961Z,100886.09
2022-10-23T22:47:14.438Z,100886.28
2022-10-23T22:49:40.833Z,100878.25
2022-10-23T22:52:07.233Z,100880.13
2022-10-23T22:54:33.622Z,100891.88
2022-10-23T22:57:00.019Z,100904.53
2022-10-23T22:59:26.420Z,100894.59
2022-10-23T23:01:52.796Z,100905.38
2022-10-23T23:04:37.424Z,100894.59
2022-10-23T23:07:05.690Z,100898.38
2022-10-23T23:09:32.120Z,100895.00
2022-10-23T23:11:58.490Z,100888.31
2022-10-23T23:14:24.878Z,100888.31
2022-10-23T23:16:51.806Z,100880.97
2022-10-23T23:19:18.158Z,100890.00
2022-10-23T23:21:44.606Z,100892.72
2022-10-23T23:24:11.467Z,100879.09
2022-10-23T23:26:37.860Z,100878.13
2022-10-23T23:29:04.281Z,100879.09
2022-10-23T23:31:30.655Z,100887.28
2022-10-23T23:33:57.230Z,100889.03
2022-10-23T23:36:25.100Z,100870.91
2022-10-23T23:38:52.348Z,100881.69
2022-10-23T23:41:19.797Z,100882.53
2022-10-23T23:43:46.214Z,100874.53
2022-10-23T23:46:13.036Z,100862.59
2022-10-23T23:48:39.590Z,100860.72
2022-10-23T23:51:06.245Z,100879.78
2022-10-23T23:53:32.614Z,100877.91
2022-10-23T23:55:58.987Z,100869.72
2022-10-23T23:58:25.355Z,100870.56
